createdAt,value
2023-05-05T00:01:02.635Z,57.10
2023-05-05T00:03:30.044Z,57.00
2023-05-05T00:05:57.890Z,56.90
2023-05-05T00:08:24.995Z,56.90
2023-05-05T00:10:53.089Z,56.90
2023-05-05T00:13:20.791Z,57.10
2023-05-05T00:15:49.298Z,57.10
2023-05-05T00:18:17.316Z,57.10
2023-05-05T00:20:45.032Z,57.10
2023-05-05T00:23:12.098Z,57.10
2023-05-05T00:25:39.400Z,57.10
2023-05-05T00:28:06.499Z,57.30
2023-05-05T00:30:34.246Z,57.20
2023-05-05T00:33:01.860Z,57.20
2023-05-05T00:35:29.387Z,57.30
2023-05-05T00:37:56.581Z,57.50
2023-05-05T00:40:23.864Z,57.60
2023-05-05T00:42:51.184Z,57.60
2023-05-05T00:45:20.013Z,57.60
2023-05-05T00:47:52.470Z,57.80
2023-05-05T00:50:30.108Z,57.80
2023-05-05T00:53:01.014Z,57.90
2023-05-05T00:55:32.198Z,58.10
2023-05-05T00:57:59.823Z,58.10
2023-05-05T01:00:27.590Z,58.40
2023-05-05T01:02:55.443Z,58.20
2023-05-05T01:05:24.080Z,58.40
2023-05-05T01:07:52.577Z,58.10
2023-05-05T01:10:23.140Z,58.20
2023-05-05T01:12:50.654Z,58.50
2023-05-05T01:15:21.720Z,58.50
2023-05-05T01:17:56.245Z,58.60
2023-05-05T01:20:34.003Z,58.70
2023-05-05T01:23:04.501Z,58.80
2023-05-05T01:25:58.536Z,58.80
2023-05-05T01:28:39.597Z,59.00
2023-05-05T01:31:10.042Z,59.10
2023-05-05T01:33:41.636Z,59.00
2023-05-05T01:36:12.600Z,59.10
2023-05-05T01:38:41.982Z,59.20
2023-05-05T01:41:17.691Z,59.30
2023-05-05T01:43:46.785Z,59.30
2023-05-05T01:46:14.734Z,59.40
2023-05-05T01:48:43.200Z,59.60
2023-05-05T01:51:11.112Z,59.60
2023-05-05T01:53:39.586Z,59.70
2023-05-05T01:56:08.696Z,60.10
2023-05-05T01:58:36.465Z,60.30
2023-05-05T02:01:04.262Z,60.20
2023-05-05T02:03:32.417Z,60.10
2023-05-05T02:06:00.945Z,60.20
2023-05-05T02:08:29.752Z,60.60
2023-05-05T02:10:59.480Z,60.40
2023-05-05T02:13:27.917Z,60.30
2023-05-05T02:15:55.562Z,60.40
2023-05-05T02:18:23.060Z,60.50
2023-05-05T02:20:51.220Z,61.10
2023-05-05T02:23:18.655Z,60.80
2023-05-05T02:25:54.850Z,60.80
2023-05-05T02:28:24.954Z,60.80
2023-05-05T02:30:56.362Z,61.00
2023-05-05T02:33:24.646Z,60.90
2023-05-05T02:35:52.669Z,61.00
2023-05-05T02:38:22.867Z,61.30
2023-05-05T02:40:51.834Z,61.50
2023-05-05T02:43:21.182Z,61.70
2023-05-05T02:45:48.458Z,61.60
2023-05-05T02:48:15.812Z,61.40
2023-05-05T02:50:44.121Z,61.60
2023-05-05T02:53:14.652Z,61.70
2023-05-05T02:55:46.384Z,61.90
2023-05-05T02:58:22.914Z,61.70
2023-05-05T03:00:55.868Z,61.60
2023-05-05T03:03:31.813Z,61.60
2023-05-05T03:06:16.625Z,61.80
2023-05-05T03:09:00.960Z,61.80
2023-05-05T03:11:31.583Z,61.80
2023-05-05T03:14:05.053Z,61.80
2023-05-05T03:16:35.100Z,61.90
2023-05-05T03:19:04.360Z,62.10
2023-05-05T03:21:32.920Z,61.90
2023-05-05T03:24:00.451Z,61.90
2023-05-05T03:26:27.833Z,61.80
2023-05-05T03:28:54.952Z,62.00
2023-05-05T03:31:21.941Z,62.20
2023-05-05T03:33:48.971Z,62.30
2023-05-05T03:36:16.138Z,62.60
2023-05-05T03:38:43.335Z,62.10
2023-05-05T03:41:11.199Z,61.80
2023-05-05T03:43:39.891Z,62.00
2023-05-05T03:46:07.254Z,62.00
2023-05-05T03:48:34.913Z,62.00
2023-05-05T03:51:02.403Z,62.10
2023-05-05T03:53:29.583Z,62.20
2023-05-05T03:55:57.813Z,62.20
2023-05-05T03:58:24.983Z,62.20
2023-05-05T04:00:51.992Z,62.40
2023-05-05T04:03:19.655Z,62.70
2023-05-05T04:05:47.734Z,62.60
2023-05-05T04:08:14.811Z,62.90
2023-05-05T04:10:41.766Z,63.20
2023-05-05T04:13:09.307Z,62.90
2023-05-05T04:15:36.737Z,63.10
2023-05-05T04:18:04.054Z,63.10
2023-05-05T04:20:35.129Z,63.30
2023-05-05T04:23:02.338Z,63.30
2023-05-05T04:25:30.136Z,63.50
2023-05-05T04:27:57.016Z,63.40
2023-05-05T04:30:24.199Z,63.60
2023-05-05T04:32:51.386Z,63.70
2023-05-05T04:35:18.545Z,63.80
2023-05-05T04:37:45.653Z,64.00
2023-05-05T04:40:13.151Z,64.10
2023-05-05T04:42:40.604Z,64.20
2023-05-05T04:45:11.700Z,64.20
2023-05-05T04:47:42.467Z,64.40
2023-05-05T04:50:10.510Z,64.40
2023-05-05T04:52:38.134Z,64.60
2023-05-05T04:55:06.415Z,64.70
2023-05-05T04:57:34.134Z,64.80
2023-05-05T05:00:01.480Z,65.00
2023-05-05T05:02:29.607Z,65.10
2023-05-05T05:04:56.823Z,65.00
2023-05-05T05:07:26.509Z,65.00
2023-05-05T05:09:53.543Z,64.90
2023-05-05T05:12:25.390Z,64.90
2023-05-05T05:14:52.401Z,64.80
2023-05-05T05:17:20.211Z,64.70
2023-05-05T05:19:47.651Z,64.80
2023-05-05T05:22:14.912Z,64.90
2023-05-05T05:24:41.980Z,64.70
2023-05-05T05:27:10.283Z,64.80
2023-05-05T05:29:37.697Z,65.00
2023-05-05T05:32:04.882Z,65.00
2023-05-05T05:34:32.444Z,65.00
2023-05-05T05:37:00.032Z,65.20
2023-05-05T05:39:27.208Z,65.10
2023-05-05T05:41:54.337Z,65.20
2023-05-05T05:44:22.055Z,65.00
2023-05-05T05:46:51.229Z,65.10
2023-05-05T05:49:18.523Z,64.90
2023-05-05T05:51:46.343Z,65.00
2023-05-05T05:54:13.468Z,65.00
2023-05-05T05:56:41.041Z,65.00
2023-05-05T05:59:10.440Z,64.90
2023-05-05T06:01:37.467Z,65.00
2023-05-05T06:04:04.734Z,65.00
2023-05-05T06:06:31.997Z,65.00
2023-05-05T06:08:59.326Z,64.80
2023-05-05T06:11:26.880Z,64.80
2023-05-05T06:13:53.850Z,64.70
2023-05-05T06:16:21.708Z,64.70
2023-05-05T06:18:48.845Z,64.70
2023-05-05T06:21:15.961Z,64.70
2023-05-05T06:23:43.094Z,64.60
2023-05-05T06:26:10.127Z,64.50
2023-05-05T06:28:38.065Z,64.40
2023-05-05T06:31:05.347Z,64.30
2023-05-05T06:33:32.580Z,64.40
2023-05-05T06:36:00.024Z,64.40
2023-05-05T06:38:27.531Z,64.40
2023-05-05T06:40:54.566Z,64.40
2023-05-05T06:43:22.278Z,64.40
2023-05-05T06:45:49.707Z,64.40
2023-05-05T06:48:17.036Z,64.30
2023-05-05T06:50:44.390Z,64.20
2023-05-05T06:53:11.672Z,64.00
2023-05-05T06:55:39.097Z,64.00
2023-05-05T06:58:06.824Z,63.90
2023-05-05T07:00:33.880Z,63.90
2023-05-05T07:03:01.050Z,63.90
2023-05-05T07:05:28.137Z,63.90
2023-05-05T07:07:55.393Z,63.80
2023-05-05T07:10:23.885Z,63.90
2023-05-05T07:12:52.760Z,64.00
2023-05-05T07:15:28.758Z,64.10
2023-05-05T07:17:57.216Z,63.90
2023-05-05T07:20:24.796Z,63.80
2023-05-05T07:22:51.953Z,63.70
2023-05-05T07:25:19.157Z,63.70
2023-05-05T07:27:46.630Z,63.60
2023-05-05T07:30:18.158Z,63.60
2023-05-05T07:32:46.415Z,63.60
2023-05-05T07:35:13.972Z,63.50
2023-05-05T07:37:44.749Z,63.60
2023-05-05T07:40:12.218Z,63.40
2023-05-05T07:42:39.216Z,63.40
2023-05-05T07:45:07.206Z,63.40
2023-05-05T07:47:34.699Z,63.40
2023-05-05T07:50:01.850Z,63.30
2023-05-05T07:52:44.143Z,63.40
2023-05-05T07:55:13.825Z,63.30
2023-05-05T07:57:42.015Z,63.40
2023-05-05T08:00:11.686Z,63.30
2023-05-05T08:02:41.350Z,63.30
2023-05-05T08:05:09.477Z,63.10
2023-05-05T08:07:41.353Z,63.00
2023-05-05T08:10:13.686Z,63.10
2023-05-05T08:12:41.438Z,62.80
2023-05-05T08:15:09.198Z,62.70
2023-05-05T08:17:47.437Z,62.60
2023-05-05T08:20:15.329Z,62.40
2023-05-05T08:22:44.552Z,62.40
2023-05-05T08:25:11.995Z,62.20
2023-05-05T08:27:40.211Z,62.00
2023-05-05T08:30:08.179Z,61.70
2023-05-05T08:32:35.440Z,62.00
2023-05-05T08:35:03.660Z,61.90
2023-05-05T08:37:31.234Z,61.40
2023-05-05T08:39:58.551Z,61.20
2023-05-05T08:42:37.122Z,61.00
2023-05-05T08:45:06.883Z,61.30
2023-05-05T08:47:34.678Z,61.00
2023-05-05T08:50:02.314Z,60.70
2023-05-05T08:52:33.347Z,60.50
2023-05-05T08:55:03.363Z,60.30
2023-05-05T08:57:42.950Z,60.10
2023-05-05T09:00:11.389Z,59.80
2023-05-05T09:02:40.080Z,59.90
2023-05-05T09:05:11.351Z,59.30
2023-05-05T09:07:41.469Z,59.20
2023-05-05T09:10:09.523Z,59.10
2023-05-05T09:12:36.799Z,58.70
2023-05-05T09:15:04.345Z,58.90
2023-05-05T09:17:32.050Z,58.60
2023-05-05T09:20:07.660Z,58.30
2023-05-05T09:22:36.005Z,58.20
2023-05-05T09:25:04.036Z,58.00
2023-05-05T09:27:31.325Z,57.80
2023-05-05T09:29:58.296Z,57.60
2023-05-05T09:32:25.557Z,57.40
2023-05-05T09:35:00.280Z,57.00
2023-05-05T09:37:28.552Z,56.80
2023-05-05T09:39:56.227Z,57.10
2023-05-05T09:42:23.589Z,56.90
2023-05-05T09:44:52.013Z,56.70
2023-05-05T09:47:29.361Z,56.40
2023-05-05T09:49:58.969Z,56.30
2023-05-05T09:52:25.960Z,55.40
2023-05-05T09:54:57.353Z,55.10
2023-05-05T09:57:29.202Z,54.60
2023-05-05T10:00:00.368Z,54.20
2023-05-05T10:02:38.423Z,52.90
2023-05-05T10:05:07.388Z,52.50
2023-05-05T10:07:35.275Z,52.40
2023-05-05T10:10:03.851Z,52.10
2023-05-05T10:12:31.627Z,51.50
2023-05-05T10:14:59.979Z,51.20
2023-05-05T10:17:28.794Z,50.60
2023-05-05T10:20:00.137Z,49.90
2023-05-05T10:22:30.317Z,49.10
2023-05-05T10:25:09.690Z,48.20
2023-05-05T10:27:43.981Z,47.90
2023-05-05T10:30:17.549Z,47.40
2023-05-05T10:32:59.324Z,46.30
2023-05-05T10:35:33.215Z,46.50
2023-05-05T10:38:00.639Z,46.70
2023-05-05T10:40:30.594Z,46.60
2023-05-05T10:42:58.621Z,46.30
2023-05-05T10:45:25.962Z,45.80
2023-05-05T10:47:54.305Z,45.20
2023-05-05T10:50:27.563Z,44.60
2023-05-05T10:53:13.352Z,44.60
2023-05-05T10:55:54.590Z,44.90
2023-05-05T10:58:51.077Z,44.60
2023-05-05T11:01:32.522Z,44.30
2023-05-05T11:04:18.612Z,44.40
2023-05-05T11:07:04.913Z,44.50
2023-05-05T11:09:32.142Z,44.60
2023-05-05T11:12:03.469Z,44.60
2023-05-05T11:14:32.981Z,44.20
2023-05-05T11:17:00.227Z,43.90
2023-05-05T11:19:56.980Z,43.60
2023-05-05T11:22:24.270Z,43.70
2023-05-05T11:24:51.452Z,43.20
2023-05-05T11:27:19.136Z,42.20
2023-05-05T11:30:04.146Z,41.20
2023-05-05T11:32:31.205Z,41.40
2023-05-05T11:34:58.381Z,41.60
2023-05-05T11:37:27.916Z,41.20
2023-05-05T11:40:03.070Z,41.00
2023-05-05T11:42:31.803Z,40.90
2023-05-05T11:44:59.910Z,41.00
2023-05-05T11:47:27.998Z,40.70
2023-05-05T11:49:56.295Z,40.50
2023-05-05T11:52:24.682Z,40.70
2023-05-05T11:54:51.801Z,40.40
2023-05-05T11:57:22.404Z,40.50
2023-05-05T12:00:03.244Z,40.80
2023-05-05T12:02:31.696Z,40.80
2023-05-05T12:04:59.545Z,40.70
2023-05-05T12:07:28.313Z,40.60
2023-05-05T12:09:55.465Z,40.70
2023-05-05T12:12:33.426Z,40.50
2023-05-05T12:15:02.585Z,39.90
2023-05-05T12:17:37.254Z,39.30
2023-05-05T12:20:07.453Z,38.70
2023-05-05T12:22:38.001Z,38.30
2023-05-05T12:25:06.810Z,38.20
2023-05-05T12:27:35.560Z,38.00
2023-05-05T12:30:24.536Z,37.70
2023-05-05T12:33:02.239Z,37.90
2023-05-05T12:35:30.270Z,37.60
2023-05-05T12:37:58.761Z,37.40
2023-05-05T12:40:45.793Z,37.20
2023-05-05T12:43:29.303Z,37.30
2023-05-05T12:46:04.099Z,37.30
2023-05-05T12:48:31.849Z,37.00
2023-05-05T12:51:12.732Z,37.00
2023-05-05T12:53:40.231Z,36.70
2023-05-05T12:56:07.703Z,36.40
2023-05-05T12:58:48.972Z,36.20
2023-05-05T13:01:16.664Z,36.30
2023-05-05T13:03:44.553Z,36.40
2023-05-05T13:06:22.466Z,36.80
2023-05-05T13:08:49.596Z,36.70
2023-05-05T13:11:17.340Z,36.60
2023-05-05T13:13:47.535Z,36.70
2023-05-05T13:16:14.802Z,36.40
2023-05-05T13:18:49.906Z,36.60
2023-05-05T13:21:17.154Z,36.90
2023-05-05T13:23:44.683Z,36.80
2023-05-05T13:26:12.710Z,36.60
2023-05-05T13:28:40.103Z,36.10
2023-05-05T13:31:07.980Z,35.60
2023-05-05T13:33:36.441Z,35.40
2023-05-05T13:36:03.817Z,35.00
2023-05-05T13:38:33.806Z,34.60
2023-05-05T13:41:01.247Z,34.50
2023-05-05T13:43:28.665Z,34.50
2023-05-05T13:46:05.687Z,34.30
2023-05-05T13:48:36.355Z,34.50
2023-05-05T13:51:03.459Z,34.90
2023-05-05T13:53:32.221Z,35.00
2023-05-05T13:56:00.756Z,35.30
2023-05-05T13:58:27.970Z,35.50
2023-05-05T14:00:56.084Z,35.80
2023-05-05T14:03:24.198Z,35.70
2023-05-05T14:05:51.279Z,35.80
2023-05-05T14:08:21.148Z,35.90
2023-05-05T14:10:50.116Z,35.90
2023-05-05T14:13:19.131Z,35.80
2023-05-05T14:15:54.280Z,35.70
2023-05-05T14:18:21.809Z,35.90
2023-05-05T14:20:49.647Z,35.90
2023-05-05T14:23:19.250Z,36.40
2023-05-05T14:25:46.576Z,36.50
2023-05-05T14:28:13.537Z,36.70
2023-05-05T14:30:40.591Z,37.00
2023-05-05T14:33:11.422Z,36.90
2023-05-05T14:35:38.589Z,37.10
2023-05-05T14:38:05.834Z,37.00
2023-05-05T14:40:33.039Z,36.90
2023-05-05T14:43:00.840Z,36.90
2023-05-05T14:45:30.178Z,36.80
2023-05-05T14:47:57.973Z,36.90
2023-05-05T14:50:24.984Z,37.10
2023-05-05T14:52:52.352Z,37.20
2023-05-05T14:55:22.527Z,37.10
2023-05-05T14:57:49.626Z,37.20
2023-05-05T15:00:17.148Z,37.30
2023-05-05T15:02:44.168Z,37.30
2023-05-05T15:05:11.806Z,37.70
2023-05-05T15:07:40.787Z,37.70
2023-05-05T15:10:08.222Z,38.00
2023-05-05T15:12:35.479Z,38.40
2023-05-05T15:15:02.851Z,38.60
2023-05-05T15:17:31.714Z,38.70
2023-05-05T15:19:59.051Z,38.70
2023-05-05T15:22:26.499Z,38.80
2023-05-05T15:24:53.777Z,38.80
2023-05-05T15:27:21.408Z,39.00
2023-05-05T15:29:50.985Z,39.20
2023-05-05T15:32:21.028Z,39.20
2023-05-05T15:34:51.549Z,39.20
2023-05-05T15:37:18.835Z,39.40
2023-05-05T15:39:46.089Z,39.30
2023-05-05T15:42:15.066Z,39.30
2023-05-05T15:44:42.335Z,39.30
2023-05-05T15:47:11.659Z,39.50
2023-05-05T15:49:39.823Z,39.50
2023-05-05T15:52:07.265Z,39.50
2023-05-05T15:54:40.578Z,39.50
2023-05-05T15:57:11.639Z,39.70
2023-05-05T15:59:42.181Z,39.80
2023-05-05T16:02:10.341Z,39.80
2023-05-05T16:04:37.392Z,40.00
2023-05-05T16:07:04.741Z,40.00
2023-05-05T16:09:31.760Z,40.00
2023-05-05T16:11:58.780Z,40.10
2023-05-05T16:14:28.333Z,40.20
2023-05-05T16:16:55.715Z,40.40
2023-05-05T16:19:24.399Z,40.80
2023-05-05T16:21:51.611Z,40.90
2023-05-05T16:24:18.715Z,41.00
2023-05-05T16:26:46.330Z,41.10
2023-05-05T16:29:13.785Z,41.30
2023-05-05T16:31:41.033Z,41.40
2023-05-05T16:34:08.319Z,41.50
2023-05-05T16:36:35.629Z,41.70
2023-05-05T16:39:02.910Z,41.80
2023-05-05T16:41:30.230Z,42.10
2023-05-05T16:43:57.370Z,42.10
2023-05-05T16:46:24.430Z,42.20
2023-05-05T16:48:51.622Z,42.20
2023-05-05T16:51:19.074Z,42.20
2023-05-05T16:53:48.787Z,42.20
2023-05-05T16:56:18.112Z,42.30
2023-05-05T16:58:45.229Z,42.20
2023-05-05T17:01:12.313Z,42.30
2023-05-05T17:03:42.422Z,42.40
2023-05-05T17:06:10.355Z,42.50
2023-05-05T17:08:37.427Z,42.70
2023-05-05T17:11:04.754Z,42.90
2023-05-05T17:13:32.572Z,43.10
2023-05-05T17:15:59.777Z,43.30
2023-05-05T17:18:26.933Z,43.60
2023-05-05T17:20:54.489Z,43.80
2023-05-05T17:23:21.637Z,44.00
2023-05-05T17:25:48.748Z,44.30
2023-05-05T17:28:17.610Z,44.50
2023-05-05T17:30:44.975Z,44.80
2023-05-05T17:33:12.222Z,44.90
2023-05-05T17:35:39.342Z,45.10
2023-05-05T17:38:06.983Z,44.90
2023-05-05T17:40:33.940Z,44.90
2023-05-05T17:43:01.181Z,45.00
2023-05-05T17:45:28.335Z,45.00
2023-05-05T17:47:55.944Z,45.20
2023-05-05T17:50:23.371Z,45.30
2023-05-05T17:52:50.869Z,45.50
2023-05-05T17:55:21.056Z,45.60
2023-05-05T17:57:50.612Z,45.60
2023-05-05T18:00:20.701Z,45.70
2023-05-05T18:02:53.007Z,45.70
2023-05-05T18:05:20.356Z,45.70
2023-05-05T18:07:47.638Z,45.50
2023-05-05T18:10:15.075Z,45.40
2023-05-05T18:12:42.207Z,45.30
2023-05-05T18:15:09.806Z,45.20
2023-05-05T18:17:37.840Z,45.20
2023-05-05T18:20:07.537Z,45.10
2023-05-05T18:22:35.137Z,45.00
2023-05-05T18:25:02.399Z,45.00
2023-05-05T18:27:30.021Z,44.90
2023-05-05T18:29:57.067Z,44.80
2023-05-05T18:32:27.558Z,44.80
2023-05-05T18:34:54.868Z,44.80
2023-05-05T18:37:21.971Z,44.60
2023-05-05T18:39:49.502Z,44.50
2023-05-05T18:42:19.317Z,44.20
2023-05-05T18:44:46.513Z,44.10
2023-05-05T18:47:13.486Z,44.00
2023-05-05T18:49:40.534Z,43.90
2023-05-05T18:52:07.893Z,44.00
2023-05-05T18:54:37.501Z,43.90
2023-05-05T18:57:05.376Z,43.90
2023-05-05T18:59:32.813Z,44.00
2023-05-05T19:02:00.063Z,44.10
2023-05-05T19:04:31.723Z,44.20
2023-05-05T19:07:00.299Z,44.20
2023-05-05T19:09:27.642Z,44.20
2023-05-05T19:11:54.829Z,44.30
2023-05-05T19:14:23.084Z,44.40
2023-05-05T19:16:50.957Z,44.60
2023-05-05T19:19:18.738Z,44.60
2023-05-05T19:21:46.427Z,44.80
2023-05-05T19:24:13.415Z,44.90
2023-05-05T19:26:41.000Z,45.10
2023-05-05T19:29:08.294Z,45.20
2023-05-05T19:31:36.409Z,45.50
2023-05-05T19:34:05.169Z,45.70
2023-05-05T19:36:32.684Z,45.70
2023-05-05T19:39:03.653Z,45.90
2023-05-05T19:41:31.575Z,46.40
2023-05-05T19:43:58.990Z,46.40
2023-05-05T19:46:29.307Z,46.40
2023-05-05T19:48:57.165Z,46.60
2023-05-05T19:51:24.384Z,46.80
2023-05-05T19:53:51.554Z,46.80
2023-05-05T19:56:18.777Z,47.00
2023-05-05T19:59:02.310Z,47.00
2023-05-05T20:01:30.282Z,47.10
2023-05-05T20:03:57.678Z,47.10
2023-05-05T20:06:28.369Z,47.20
2023-05-05T20:08:56.028Z,47.40
2023-05-05T20:11:23.669Z,47.40
2023-05-05T20:13:52.146Z,47.50
2023-05-05T20:16:19.399Z,47.60
2023-05-05T20:18:48.694Z,47.70
2023-05-05T20:21:16.945Z,47.80
2023-05-05T20:23:45.655Z,47.90
2023-05-05T20:26:12.850Z,47.90
2023-05-05T20:28:41.877Z,48.00
2023-05-05T20:31:13.755Z,48.10
2023-05-05T20:33:41.020Z,48.10
2023-05-05T20:36:08.870Z,48.20
2023-05-05T20:38:36.097Z,48.30
2023-05-05T20:41:03.178Z,48.40
2023-05-05T20:43:30.284Z,48.60
2023-05-05T20:45:57.634Z,48.90
2023-05-05T20:48:25.192Z,49.20
2023-05-05T20:50:52.546Z,49.40
2023-05-05T20:53:21.247Z,49.80
2023-05-05T20:55:50.863Z,50.00
2023-05-05T20:58:22.237Z,50.30
2023-05-05T21:00:49.298Z,50.60
2023-05-05T21:03:16.567Z,50.80
2023-05-05T21:05:43.640Z,51.00
2023-05-05T21:08:11.170Z,51.30
2023-05-05T21:10:38.738Z,51.50
2023-05-05T21:13:05.975Z,51.70
2023-05-05T21:15:34.180Z,51.90
2023-05-05T21:18:02.526Z,52.10
2023-05-05T21:20:30.083Z,52.20
2023-05-05T21:22:57.157Z,52.50
2023-05-05T21:25:25.419Z,52.70
2023-05-05T21:27:52.485Z,52.90
2023-05-05T21:30:20.222Z,53.00
2023-05-05T21:32:48.371Z,53.30
2023-05-05T21:35:15.637Z,53.50
2023-05-05T21:37:42.887Z,53.60
2023-05-05T21:40:14.130Z,53.90
2023-05-05T21:42:42.117Z,54.10
2023-05-05T21:45:10.538Z,54.20
2023-05-05T21:47:37.600Z,54.20
2023-05-05T21:50:05.052Z,54.30
2023-05-05T21:52:32.268Z,54.30
2023-05-05T21:54:59.827Z,54.30
2023-05-05T21:57:27.033Z,54.50
2023-05-05T21:59:54.627Z,54.60
2023-05-05T22:02:21.950Z,54.60
2023-05-05T22:04:51.336Z,54.60
2023-05-05T22:07:18.898Z,54.50
2023-05-05T22:09:46.288Z,54.40
2023-05-05T22:12:13.519Z,54.40
2023-05-05T22:14:40.780Z,54.30
2023-05-05T22:17:07.946Z,54.20
2023-05-05T22:19:35.177Z,54.30
2023-05-05T22:22:03.446Z,54.20
2023-05-05T22:24:31.774Z,54.20
2023-05-05T22:26:59.202Z,54.20
2023-05-05T22:29:26.325Z,54.30
2023-05-05T22:31:53.742Z,54.10
2023-05-05T22:34:22.179Z,54.20
2023-05-05T22:36:50.048Z,54.20
2023-05-05T22:39:18.826Z,54.30
2023-05-05T22:41:47.328Z,54.20
2023-05-05T22:44:15.133Z,54.40
2023-05-05T22:46:42.368Z,55.20
2023-05-05T22:49:09.662Z,55.60
2023-05-05T22:51:39.950Z,56.30
2023-05-05T22:54:07.050Z,56.80
2023-05-05T22:56:34.626Z,57.20
2023-05-05T22:59:01.682Z,57.30
2023-05-05T23:01:28.890Z,58.00
2023-05-05T23:03:56.665Z,58.40
2023-05-05T23:06:23.868Z,58.60
2023-05-05T23:08:51.133Z,59.20
2023-05-05T23:11:18.399Z,59.40
2023-05-05T23:13:46.006Z,59.90
2023-05-05T23:16:12.992Z,60.00
2023-05-05T23:18:40.204Z,60.20
2023-05-05T23:21:07.987Z,60.60
2023-05-05T23:23:35.244Z,60.80
2023-05-05T23:26:02.422Z,61.10
2023-05-05T23:28:29.858Z,61.30
2023-05-05T23:30:57.182Z,61.80
2023-05-05T23:33:24.468Z,62.20
2023-05-05T23:35:51.994Z,62.40
2023-05-05T23:38:19.183Z,62.80
2023-05-05T23:40:46.146Z,63.00
2023-05-05T23:43:13.832Z,63.30
2023-05-05T23:45:40.965Z,63.50
2023-05-05T23:48:08.098Z,63.60
2023-05-05T23:50:35.192Z,63.80
2023-05-05T23:53:02.071Z,64.00
2023-05-05T23:55:29.222Z,64.20
2023-05-05T23:57:56.330Z,64.40
